Time;durP1;ratioP1;P1;durP2;ratioP2;P2;SDS_P1;SDS_P2;PMS_P1;PMS_P2;Temp;Humidity;BMP_temperature;BMP_pressure;BME280_temperature;BME280_humidity;BME280_pressure;Samples;Min_cycle;Max_cycle;Signal;HPM_P1;HPM_P2
2022/12/21 00:00:25;;;;;;;25.40;10.20;;;;;;;;;;106740;1307;22041;-78
2022/12/21 00:03:14;;;;;;;25.80;9.80;;;;;;;;;;106697;1307;22659;-79
2022/12/21 00:05:43;;;;;;;28.70;11.40;;;;;;;;;;106877;1307;22103;-78
2022/12/21 00:08:12;;;;;;;34.50;12.90;;;;;;;;;;106859;1307;22343;-79
2022/12/21 00:10:41;;;;;;;28.30;11.30;;;;;;;;;;106723;1310;22720;-77
2022/12/21 00:13:10;;;;;;;29.20;11.70;;;;;;;;;;106723;1310;21967;-77
2022/12/21 00:15:39;;;;;;;27.90;12.00;;;;;;;;;;106851;1308;22369;-77
2022/12/21 00:18:08;;;;;;;29.30;11.10;;;;;;;;;;106725;1310;21657;-78
2022/12/21 00:20:37;;;;;;;26.40;10.90;;;;;;;;;;106708;1294;22070;-78
2022/12/21 00:23:06;;;;;;;27.90;11.40;;;;;;;;;;106659;1308;22048;-77
2022/12/21 00:25:36;;;;;;;32.90;12.70;;;;;;;;;;106636;1307;22732;-77
2022/12/21 00:28:04;;;;;;;30.60;12.20;;;;;;;;;;106752;1309;22274;-78
2022/12/21 00:30:33;;;;;;;27.20;11.20;;;;;;;;;;106714;1309;22061;-79
2022/12/21 00:33:03;;;;;;;28.90;11.60;;;;;;;;;;106725;1310;22114;-79
2022/12/21 00:35:33;;;;;;;30.40;11.50;;;;;;;;;;106744;1309;22162;-77
2022/12/21 00:38:01;;;;;;;29.50;11.60;;;;;;;;;;106663;1310;22386;-79
2022/12/21 00:40:31;;;;;;;30.40;10.40;;;;;;;;;;106713;1307;22155;-79
2022/12/21 00:43:00;;;;;;;29.50;11.30;;;;;;;;;;106752;1307;23036;-79
2022/12/21 00:45:29;;;;;;;24.90;10.30;;;;;;;;;;106754;1307;22723;-80
2022/12/21 00:47:58;;;;;;;24.90;10.50;;;;;;;;;;106665;1307;22062;-78
2022/12/21 00:50:28;;;;;;;26.90;10.50;;;;;;;;;;106583;1304;22071;-77
2022/12/21 00:52:56;;;;;;;23.80;9.50;;;;;;;;;;106680;1308;22100;-78
2022/12/21 00:55:26;;;;;;;27.70;10.70;;;;;;;;;;106755;1309;22070;-78
2022/12/21 01:04:51;;;;;;;25.00;10.50;;;;;;;;;;100892;1325;545113;-83
2022/12/21 01:07:18;;;;;;;23.70;10.20;;;;;;;;;;102510;1304;22592;-80
2022/12/21 01:09:44;;;;;;;29.00;10.30;;;;;;;;;;102706;1317;22486;-81
2022/12/21 01:12:11;;;;;;;24.60;10.10;;;;;;;;;;102492;1317;22483;-85
2022/12/21 01:14:37;;;;;;;24.40;10.50;;;;;;;;;;102587;1308;24291;-78
2022/12/21 01:17:05;;;;;;;24.30;9.30;;;;;;;;;;102473;1298;22713;-79
2022/12/21 01:19:32;;;;;;;27.10;10.50;;;;;;;;;;101940;1306;1527848;-85
2022/12/21 01:21:58;;;;;;;24.10;10.10;;;;;;;;;;102927;1313;22489;-82
2022/12/21 01:24:27;;;;;;;24.10;9.70;;;;;;;;;;103102;1298;22477;-81
2022/12/21 01:26:54;;;;;;;25.60;9.00;;;;;;;;;;103038;1313;24630;-82
2022/12/21 01:29:22;;;;;;;29.70;10.40;;;;;;;;;;103020;1308;22598;-81
2022/12/21 01:31:49;;;;;;;27.90;11.80;;;;;;;;;;103217;1313;22469;-82
2022/12/21 01:34:16;;;;;;;28.60;11.30;;;;;;;;;;103012;1313;24328;-78
2022/12/21 01:36:43;;;;;;;28.20;10.70;;;;;;;;;;102997;1313;23954;-80
2022/12/21 01:39:09;;;;;;;26.70;10.30;;;;;;;;;;102867;1313;23024;-82
2022/12/21 01:41:36;;;;;;;27.10;9.40;;;;;;;;;;102889;1307;22495;-77
2022/12/21 01:44:04;;;;;;;26.10;9.40;;;;;;;;;;102957;1313;22496;-82
2022/12/21 01:46:34;;;;;;;24.00;9.70;;;;;;;;;;103033;1307;22557;-83
2022/12/21 01:49:19;;;;;;;24.00;9.90;;;;;;;;;;102882;1313;25187;-82
2022/12/21 01:51:48;;;;;;;23.20;10.20;;;;;;;;;;102963;1313;25322;-79
2022/12/21 01:54:17;;;;;;;23.30;9.50;;;;;;;;;;102993;1313;22521;-83
2022/12/21 01:56:46;;;;;;;25.60;10.20;;;;;;;;;;103020;1308;22471;-81
2022/12/21 01:59:20;;;;;;;24.40;10.20;;;;;;;;;;102954;1314;22484;-84
2022/12/21 02:01:47;;;;;;;26.20;10.50;;;;;;;;;;102991;1308;22718;-80
2022/12/21 02:04:14;;;;;;;26.30;9.60;;;;;;;;;;102920;1313;26467;-84
2022/12/21 02:06:47;;;;;;;26.50;11.20;;;;;;;;;;103075;1313;22461;-79
2022/12/21 02:09:15;;;;;;;28.20;10.60;;;;;;;;;;103177;1305;24328;-79
2022/12/21 02:11:42;;;;;;;30.20;11.10;;;;;;;;;;103093;1310;25385;-82
2022/12/21 02:14:12;;;;;;;30.00;11.80;;;;;;;;;;103272;1310;22482;-80
2022/12/21 02:16:58;;;;;;;32.10;11.20;;;;;;;;;;103112;1310;25537;-78
2022/12/21 02:19:34;;;;;;;32.40;11.60;;;;;;;;;;103235;1309;25249;-78
2022/12/21 02:22:19;;;;;;;29.50;10.90;;;;;;;;;;103406;1309;22482;-83
2022/12/21 02:24:54;;;;;;;26.90;10.70;;;;;;;;;;103510;1308;24240;-79
2022/12/21 02:27:30;;;;;;;28.80;11.00;;;;;;;;;;103196;1307;25251;-83
2022/12/21 02:30:15;;;;;;;28.90;11.50;;;;;;;;;;103312;1298;26588;-79
2022/12/21 02:32:51;;;;;;;28.00;11.60;;;;;;;;;;103075;1310;24250;-84
2022/12/21 02:35:24;;;;;;;27.30;11.10;;;;;;;;;;103314;1302;22702;-77
2022/12/21 02:38:01;;;;;;;27.90;11.00;;;;;;;;;;103161;1302;22483;-80
2022/12/21 02:40:43;;;;;;;25.90;10.20;;;;;;;;;;103452;1308;22839;-83
2022/12/21 02:46:19;;;;;;;25.60;10.00;;;;;;;;;;103370;1308;24323;-76
2022/12/21 02:48:46;;;;;;;25.00;10.60;;;;;;;;;;103286;1309;22469;-81
2022/12/21 02:51:16;;;;;;;25.50;8.90;;;;;;;;;;103321;1310;25339;-82
2022/12/21 02:53:44;;;;;;;25.40;10.00;;;;;;;;;;103268;1304;24320;-83
2022/12/21 02:56:18;;;;;;;24.70;9.50;;;;;;;;;;103241;1301;25252;-83
2022/12/21 02:58:46;;;;;;;25.70;10.70;;;;;;;;;;103350;1310;24339;-79
2022/12/21 03:01:33;;;;;;;23.70;9.90;;;;;;;;;;103355;1310;22462;-83
2022/12/21 03:04:08;;;;;;;29.80;11.20;;;;;;;;;;103420;1310;22540;-83
2022/12/21 03:06:42;;;;;;;28.00;11.50;;;;;;;;;;103332;1310;22051;-79
2022/12/21 03:09:28;;;;;;;25.30;10.00;;;;;;;;;;103061;1310;25169;-79
2022/12/21 03:12:13;;;;;;;27.70;10.00;;;;;;;;;;103320;1309;23850;-79
2022/12/21 03:14:58;;;;;;;24.80;10.00;;;;;;;;;;103056;1303;22590;-78
2022/12/21 03:17:44;;;;;;;24.30;9.30;;;;;;;;;;103276;1310;25305;-81
2022/12/21 03:20:21;;;;;;;26.80;10.30;;;;;;;;;;103497;1307;22478;-83
2022/12/21 03:23:06;;;;;;;21.10;8.00;;;;;;;;;;103185;1306;22471;-79
2022/12/21 03:25:33;;;;;;;25.20;8.60;;;;;;;;;;103271;1296;22616;-82
2022/12/21 03:28:01;;;;;;;22.00;8.80;;;;;;;;;;103242;1302;22490;-80
2022/12/21 03:30:29;;;;;;;21.30;8.60;;;;;;;;;;103533;1302;26475;-77
2022/12/21 03:32:58;;;;;;;25.40;9.40;;;;;;;;;;103715;1297;22509;-76
2022/12/21 03:35:26;;;;;;;23.00;9.80;;;;;;;;;;103662;1295;22586;-80
2022/12/21 03:37:55;;;;;;;23.00;8.80;;;;;;;;;;103774;1304;25203;-81
2022/12/21 03:40:24;;;;;;;23.80;9.60;;;;;;;;;;103655;1304;24184;-81
2022/12/21 03:42:55;;;;;;;23.90;9.00;;;;;;;;;;103575;1304;22524;-82
2022/12/21 03:45:25;;;;;;;22.90;9.00;;;;;;;;;;103546;1304;24316;-83
2022/12/21 03:47:56;;;;;;;22.70;8.60;;;;;;;;;;103655;1304;22560;-83
2022/12/21 03:50:24;;;;;;;21.00;9.00;;;;;;;;;;103648;1299;26469;-79
2022/12/21 03:53:11;;;;;;;22.00;9.20;;;;;;;;;;103643;1282;22507;-81
2022/12/21 03:55:40;;;;;;;21.60;8.40;;;;;;;;;;103558;1306;25363;-78
2022/12/21 03:58:07;;;;;;;23.10;8.30;;;;;;;;;;103492;1304;24265;-77
2022/12/21 04:00:38;;;;;;;22.50;8.30;;;;;;;;;;103566;1304;25346;-79
2022/12/21 04:03:10;;;;;;;25.90;8.90;;;;;;;;;;103526;1304;23873;-81
2022/12/21 04:05:55;;;;;;;23.60;9.50;;;;;;;;;;103554;1304;23830;-80
2022/12/21 04:08:23;;;;;;;23.60;8.70;;;;;;;;;;103747;1297;25357;-79
2022/12/21 04:10:51;;;;;;;22.60;9.40;;;;;;;;;;103447;1307;22437;-78
2022/12/21 04:13:18;;;;;;;26.50;10.20;;;;;;;;;;103445;1307;22481;-84
2022/12/21 04:16:03;;;;;;;25.60;9.70;;;;;;;;;;103538;1306;24295;-80
2022/12/21 04:21:16;;;;;;;26.10;9.80;;;;;;;;;;103657;1304;24477;-83
2022/12/21 04:29:13;;;;;;;28.00;10.20;;;;;;;;;;103560;1305;23889;-83
2022/12/21 04:31:40;;;;;;;24.00;9.80;;;;;;;;;;103445;1307;24325;-82
2022/12/21 04:34:07;;;;;;;23.40;9.50;;;;;;;;;;103531;1306;22455;-79
2022/12/21 04:39:19;;;;;;;21.70;8.20;;;;;;;;;;103820;1304;22462;-81
2022/12/21 04:41:46;;;;;;;20.20;8.40;;;;;;;;;;103523;1304;22458;-81
2022/12/21 04:44:13;;;;;;;22.20;8.90;;;;;;;;;;103505;1304;22462;-81
2022/12/21 04:46:39;;;;;;;20.80;8.70;;;;;;;;;;103510;1304;24069;-80
2022/12/21 04:49:06;;;;;;;21.80;8.80;;;;;;;;;;103609;1307;24250;-78
2022/12/21 04:51:32;;;;;;;23.90;9.50;;;;;;;;;;103546;1307;22533;-82
2022/12/21 04:54:01;;;;;;;21.90;8.90;;;;;;;;;;103450;1297;22467;-83
2022/12/21 04:56:28;;;;;;;23.60;9.30;;;;;;;;;;103651;1307;22471;-80
2022/12/21 04:58:54;;;;;;;24.30;9.50;;;;;;;;;;103522;1306;22457;-81
2022/12/21 05:01:22;;;;;;;24.60;9.30;;;;;;;;;;103650;1304;24015;-81
2022/12/21 05:03:49;;;;;;;24.80;9.40;;;;;;;;;;103782;1304;25324;-76
2022/12/21 05:06:17;;;;;;;23.00;9.50;;;;;;;;;;103617;1304;25591;-84
2022/12/21 05:08:44;;;;;;;23.40;9.20;;;;;;;;;;103775;1304;24358;-80
2022/12/21 05:11:14;;;;;;;23.20;9.00;;;;;;;;;;103704;1305;22475;-79
2022/12/21 05:13:41;;;;;;;24.20;9.90;;;;;;;;;;103513;1307;22459;-78
2022/12/21 05:16:14;;;;;;;23.70;9.60;;;;;;;;;;103476;1306;21671;-81
2022/12/21 05:18:41;;;;;;;22.00;8.70;;;;;;;;;;103498;1304;26764;-82
2022/12/21 05:21:07;;;;;;;21.60;8.10;;;;;;;;;;103600;1301;25192;-80
2022/12/21 05:23:34;;;;;;;18.50;8.10;;;;;;;;;;103848;1304;22468;-78
2022/12/21 05:26:04;;;;;;;21.30;8.70;;;;;;;;;;103537;1304;25358;-80
2022/12/21 05:28:30;;;;;;;23.40;9.00;;;;;;;;;;103526;1304;22469;-81
2022/12/21 05:30:58;;;;;;;24.40;9.60;;;;;;;;;;103561;1306;24395;-77
2022/12/21 05:33:24;;;;;;;22.60;9.20;;;;;;;;;;103287;1306;25259;-79
2022/12/21 05:35:51;;;;;;;29.30;12.00;;;;;;;;;;103323;1307;22480;-82
2022/12/21 05:38:17;;;;;;;27.70;12.10;;;;;;;;;;103464;1306;22471;-79
2022/12/21 05:40:48;;;;;;;25.40;10.40;;;;;;;;;;103566;1304;24237;-79
2022/12/21 05:43:15;;;;;;;27.10;10.40;;;;;;;;;;103727;1304;22581;-80
2022/12/21 05:45:42;;;;;;;21.70;8.80;;;;;;;;;;103780;1298;23855;-78
2022/12/21 05:48:09;;;;;;;24.60;9.30;;;;;;;;;;103852;1304;22500;-79
2022/12/21 05:50:39;;;;;;;24.50;9.00;;;;;;;;;;103593;1305;24231;-79
2022/12/21 05:53:06;;;;;;;23.60;9.10;;;;;;;;;;103544;1306;22461;-84
2022/12/21 05:55:33;;;;;;;25.70;9.70;;;;;;;;;;103508;1298;22465;-83
2022/12/21 05:58:00;;;;;;;23.10;9.30;;;;;;;;;;103475;1306;22469;-77
2022/12/21 06:00:27;;;;;;;23.90;9.20;;;;;;;;;;103452;1304;25249;-79
2022/12/21 06:02:54;;;;;;;23.90;8.60;;;;;;;;;;103758;1288;22481;-81
2022/12/21 06:05:22;;;;;;;22.40;8.20;;;;;;;;;;103564;1285;22534;-83
2022/12/21 06:07:49;;;;;;;22.00;8.60;;;;;;;;;;103686;1304;22479;-80
2022/12/21 06:10:15;;;;;;;21.90;8.70;;;;;;;;;;103491;1307;25213;-85
2022/12/21 06:12:42;;;;;;;22.50;9.20;;;;;;;;;;103538;1305;25334;-82
2022/12/21 06:15:09;;;;;;;21.80;9.00;;;;;;;;;;103508;1307;22458;-78
2022/12/21 06:17:36;;;;;;;24.60;8.90;;;;;;;;;;103524;1307;25964;-82
2022/12/21 06:20:04;;;;;;;23.90;8.70;;;;;;;;;;103441;1304;22579;-84
2022/12/21 06:22:32;;;;;;;21.30;8.20;;;;;;;;;;103547;1301;22470;-81
2022/12/21 06:24:59;;;;;;;24.70;9.30;;;;;;;;;;103581;1292;25299;-80
2022/12/21 06:27:25;;;;;;;29.00;12.00;;;;;;;;;;103542;1304;22468;-83
2022/12/21 06:29:52;;;;;;;23.10;9.30;;;;;;;;;;103567;1304;24215;-79
2022/12/21 06:32:19;;;;;;;22.40;8.50;;;;;;;;;;103484;1306;24238;-79
2022/12/21 06:34:45;;;;;;;22.70;8.30;;;;;;;;;;103543;1306;25237;-79
2022/12/21 06:37:12;;;;;;;21.90;7.40;;;;;;;;;;103695;1305;22705;-80
2022/12/21 06:39:39;;;;;;;20.80;7.70;;;;;;;;;;103542;1282;23837;-77
2022/12/21 06:42:05;;;;;;;18.70;7.60;;;;;;;;;;103650;1304;22459;-80
2022/12/21 06:44:32;;;;;;;22.30;8.30;;;;;;;;;;103643;1289;24313;-82
2022/12/21 06:46:59;;;;;;;21.50;8.10;;;;;;;;;;106952;1299;22113;-75
2022/12/21 06:49:25;;;;;;;18.80;7.80;;;;;;;;;;107136;1296;21980;-76
2022/12/21 06:51:52;;;;;;;19.10;8.80;;;;;;;;;;107004;1307;21935;-75
2022/12/21 06:54:18;;;;;;;19.60;7.90;;;;;;;;;;107064;1305;22178;-76
2022/12/21 06:56:45;;;;;;;19.20;8.10;;;;;;;;;;106971;1305;22233;-76
2022/12/21 06:59:12;;;;;;;22.50;8.90;;;;;;;;;;106887;1307;22054;-76
2022/12/21 07:01:38;;;;;;;20.20;8.10;;;;;;;;;;107040;1298;22065;-75
2022/12/21 07:04:05;;;;;;;19.30;7.50;;;;;;;;;;107033;1304;22066;-76
2022/12/21 07:06:32;;;;;;;19.70;8.70;;;;;;;;;;107111;1296;22056;-75
2022/12/21 07:08:59;;;;;;;19.40;8.30;;;;;;;;;;107043;1304;22058;-76
2022/12/21 07:11:26;;;;;;;18.70;7.00;;;;;;;;;;107249;1292;22700;-77
2022/12/21 07:13:53;;;;;;;19.60;7.80;;;;;;;;;;107032;1305;22076;-75
2022/12/21 07:16:20;;;;;;;23.80;9.00;;;;;;;;;;107300;1295;22959;-76
2022/12/21 07:18:47;;;;;;;20.90;8.50;;;;;;;;;;106941;1306;22075;-75
2022/12/21 07:21:15;;;;;;;20.80;8.20;;;;;;;;;;107028;1304;22180;-75
2022/12/21 07:23:42;;;;;;;24.30;9.60;;;;;;;;;;107016;1304;22125;-76
2022/12/21 07:26:13;;;;;;;22.90;8.90;;;;;;;;;;107030;1299;22133;-75
2022/12/21 07:28:43;;;;;;;19.60;8.20;;;;;;;;;;106963;1299;22131;-75
2022/12/21 07:31:11;;;;;;;21.00;8.70;;;;;;;;;;107028;1304;22307;-76
2022/12/21 07:33:40;;;;;;;24.50;9.60;;;;;;;;;;106866;1306;22139;-75
2022/12/21 07:36:07;;;;;;;20.60;8.30;;;;;;;;;;107010;1307;22184;-75
2022/12/21 07:38:35;;;;;;;23.00;8.30;;;;;;;;;;107247;1286;22071;-75
2022/12/21 07:41:03;;;;;;;24.40;8.70;;;;;;;;;;107049;1299;22165;-74
2022/12/21 07:43:30;;;;;;;20.60;8.70;;;;;;;;;;107299;1296;22053;-76
2022/12/21 07:46:32;;;;;;;23.80;9.60;;;;;;;;;;106653;1309;22123;-75
2022/12/21 07:49:00;;;;;;;22.40;8.70;;;;;;;;;;107005;1304;22579;-77
2022/12/21 07:51:26;;;;;;;22.50;8.90;;;;;;;;;;106927;1304;22100;-76
2022/12/21 07:53:53;;;;;;;24.40;9.50;;;;;;;;;;106748;1307;22116;-77
2022/12/21 07:56:20;;;;;;;25.10;8.90;;;;;;;;;;106891;1307;22068;-76
2022/12/21 07:58:47;;;;;;;20.50;8.80;;;;;;;;;;106844;1307;23091;-76
2022/12/21 08:01:15;;;;;;;19.60;8.20;;;;;;;;;;106997;1292;22005;-76
2022/12/21 08:03:44;;;;;;;25.00;9.80;;;;;;;;;;106893;1300;22759;-77
2022/12/21 08:06:11;;;;;;;21.70;8.50;;;;;;;;;;107054;1306;21950;-77
2022/12/21 08:08:38;;;;;;;20.60;8.40;;;;;;;;;;106962;1306;22511;-77
2022/12/21 08:11:09;;;;;;;20.10;8.20;;;;;;;;;;107064;1305;22086;-76
2022/12/21 08:13:36;;;;;;;21.60;8.90;;;;;;;;;;106918;1298;22714;-77
2022/12/21 08:16:04;;;;;;;22.10;9.00;;;;;;;;;;106900;1306;22125;-77
2022/12/21 08:18:31;;;;;;;24.60;9.50;;;;;;;;;;106978;1306;22068;-77
2022/12/21 08:20:58;;;;;;;22.20;9.70;;;;;;;;;;106901;1307;22754;-77
2022/12/21 08:23:25;;;;;;;22.20;8.80;;;;;;;;;;106834;1307;22728;-78
2022/12/21 08:25:51;;;;;;;27.70;10.70;;;;;;;;;;106938;1307;22089;-78
2022/12/21 08:28:18;;;;;;;23.10;9.40;;;;;;;;;;106921;1307;22076;-77
2022/12/21 08:30:45;;;;;;;23.70;10.20;;;;;;;;;;106932;1306;22099;-77
2022/12/21 08:33:12;;;;;;;25.10;10.30;;;;;;;;;;106870;1306;22099;-78
2022/12/21 08:35:41;;;;;;;25.50;10.70;;;;;;;;;;106922;1306;22657;-79
2022/12/21 08:38:07;;;;;;;27.00;10.60;;;;;;;;;;107004;1297;22067;-78
2022/12/21 08:40:34;;;;;;;28.60;11.40;;;;;;;;;;106851;1301;22116;-77
2022/12/21 08:43:00;;;;;;;25.10;11.20;;;;;;;;;;107219;1298;22060;-76
2022/12/21 08:45:27;;;;;;;23.10;10.30;;;;;;;;;;106941;1306;22096;-78
2022/12/21 08:47:53;;;;;;;21.60;9.20;;;;;;;;;;106964;1306;22540;-78
2022/12/21 08:50:20;;;;;;;20.80;9.10;;;;;;;;;;106914;1306;22123;-77
2022/12/21 08:52:48;;;;;;;21.60;9.30;;;;;;;;;;106932;1307;23087;-78
2022/12/21 08:55:14;;;;;;;23.10;9.90;;;;;;;;;;106972;1303;22161;-79
2022/12/21 08:57:41;;;;;;;29.80;10.70;;;;;;;;;;106911;1306;22096;-79
2022/12/21 09:00:09;;;;;;;27.00;10.70;;;;;;;;;;106793;1306;22488;-78
2022/12/21 09:02:36;;;;;;;27.40;11.40;;;;;;;;;;107127;1291;22073;-78
2022/12/21 09:05:03;;;;;;;25.90;10.50;;;;;;;;;;106743;1306;22038;-77
2022/12/21 09:07:29;;;;;;;24.80;10.00;;;;;;;;;;106767;1307;22659;-78
2022/12/21 09:09:56;;;;;;;26.00;10.30;;;;;;;;;;106923;1307;22100;-77
2022/12/21 09:12:23;;;;;;;24.80;10.30;;;;;;;;;;106889;1307;22111;-77
2022/12/21 09:14:49;;;;;;;26.40;11.00;;;;;;;;;;106948;1298;22088;-78
2022/12/21 09:17:16;;;;;;;23.60;9.70;;;;;;;;;;106790;1306;22089;-78
2022/12/21 09:19:43;;;;;;;27.70;11.40;;;;;;;;;;106911;1306;21961;-77
2022/12/21 09:22:10;;;;;;;25.40;11.30;;;;;;;;;;106995;1306;22114;-77
2022/12/21 09:24:36;;;;;;;30.30;11.60;;;;;;;;;;107207;1299;22081;-78
2022/12/21 09:27:03;;;;;;;29.60;12.50;;;;;;;;;;107158;1299;22171;-77
2022/12/21 09:29:29;;;;;;;31.40;12.90;;;;;;;;;;106893;1307;22258;-77
2022/12/21 09:31:56;;;;;;;24.90;10.90;;;;;;;;;;106949;1304;22127;-76
2022/12/21 09:34:23;;;;;;;26.40;10.10;;;;;;;;;;107194;1299;22154;-77
2022/12/21 09:36:49;;;;;;;26.30;10.40;;;;;;;;;;107161;1290;22059;-77
2022/12/21 09:39:16;;;;;;;24.00;10.80;;;;;;;;;;106968;1296;22144;-77
2022/12/21 09:41:54;;;;;;;26.00;10.70;;;;;;;;;;107010;1305;22132;-77
2022/12/21 09:44:27;;;;;;;24.70;10.70;;;;;;;;;;106918;1306;22907;-78
2022/12/21 09:46:56;;;;;;;22.50;9.60;;;;;;;;;;106906;1307;22077;-77
2022/12/21 09:49:44;;;;;;;22.20;9.10;;;;;;;;;;107136;1298;22071;-77
2022/12/21 09:52:16;;;;;;;22.00;9.60;;;;;;;;;;106788;1307;22081;-77
2022/12/21 09:54:46;;;;;;;24.50;9.80;;;;;;;;;;106877;1306;22839;-77
2022/12/21 09:57:13;;;;;;;21.20;9.20;;;;;;;;;;106767;1308;22703;-76
2022/12/21 09:59:40;;;;;;;22.20;10.10;;;;;;;;;;106894;1301;22259;-76
2022/12/21 10:02:14;;;;;;;28.00;11.80;;;;;;;;;;106867;1308;22062;-77
2022/12/21 10:04:41;;;;;;;25.30;10.40;;;;;;;;;;106765;1308;22102;-76
2022/12/21 10:07:19;;;;;;;25.80;11.60;;;;;;;;;;107142;1292;22079;-77
2022/12/21 10:10:00;;;;;;;25.70;11.30;;;;;;;;;;106884;1304;22052;-77
2022/12/21 10:12:39;;;;;;;23.90;10.60;;;;;;;;;;106845;1310;22042;-77
2022/12/21 10:15:09;;;;;;;23.00;10.40;;;;;;;;;;106706;1302;22039;-77
2022/12/21 10:17:48;;;;;;;24.00;10.50;;;;;;;;;;106843;1309;22108;-77
2022/12/21 10:20:24;;;;;;;26.90;11.90;;;;;;;;;;106872;1291;22087;-77
2022/12/21 10:22:54;;;;;;;26.50;11.50;;;;;;;;;;106845;1302;22054;-78
2022/12/21 10:25:21;;;;;;;31.00;12.10;;;;;;;;;;106841;1309;22078;-76
2022/12/21 10:27:50;;;;;;;27.40;11.60;;;;;;;;;;106730;1310;22811;-78
2022/12/21 10:30:17;;;;;;;26.60;11.60;;;;;;;;;;106728;1310;21967;-79
2022/12/21 10:32:45;;;;;;;28.50;12.80;;;;;;;;;;106750;1309;21974;-77
2022/12/21 10:35:17;;;;;;;26.80;12.50;;;;;;;;;;106815;1308;22879;-78
2022/12/21 10:37:53;;;;;;;26.70;11.10;;;;;;;;;;106866;1308;22789;-76
2022/12/21 10:40:21;;;;;;;26.10;11.50;;;;;;;;;;107115;1291;22028;-77
2022/12/21 10:42:49;;;;;;;32.70;14.30;;;;;;;;;;106820;1309;22089;-78
2022/12/21 10:45:19;;;;;;;32.50;13.90;;;;;;;;;;106848;1307;22070;-79
2022/12/21 10:47:46;;;;;;;31.60;13.70;;;;;;;;;;106767;1309;22097;-79
2022/12/21 10:50:25;;;;;;;29.10;12.20;;;;;;;;;;106888;1302;22031;-78
2022/12/21 10:52:52;;;;;;;29.80;12.20;;;;;;;;;;106866;1310;22067;-78
2022/12/21 10:55:19;;;;;;;25.90;11.60;;;;;;;;;;106849;1307;21983;-78
2022/12/21 10:57:47;;;;;;;26.70;12.30;;;;;;;;;;106847;1308;22818;-79
2022/12/21 11:00:21;;;;;;;30.70;13.60;;;;;;;;;;106663;1290;21968;-78
2022/12/21 11:02:49;;;;;;;26.60;11.70;;;;;;;;;;106695;1312;22746;-79
2022/12/21 11:05:25;;;;;;;28.70;11.70;;;;;;;;;;106736;1308;22744;-79
2022/12/21 11:07:52;;;;;;;26.60;10.50;;;;;;;;;;106813;1307;22051;-79
2022/12/21 11:10:27;;;;;;;30.30;11.70;;;;;;;;;;106716;1310;22104;-79
2022/12/21 11:12:54;;;;;;;29.90;12.60;;;;;;;;;;106669;1313;22085;-79
2022/12/21 11:15:23;;;;;;;30.30;11.50;;;;;;;;;;106720;1310;22103;-78
2022/12/21 11:17:49;;;;;;;34.20;14.50;;;;;;;;;;106838;1309;22137;-79
2022/12/21 11:20:21;;;;;;;32.90;13.30;;;;;;;;;;106672;1310;22082;-80
2022/12/21 11:22:50;;;;;;;38.30;14.30;;;;;;;;;;106658;1308;22127;-79
2022/12/21 11:25:19;;;;;;;26.50;11.40;;;;;;;;;;106747;1303;21914;-79
2022/12/21 11:27:48;;;;;;;28.70;12.60;;;;;;;;;;106962;1300;21659;-80
2022/12/21 11:30:18;;;;;;;25.90;11.00;;;;;;;;;;106743;1310;22092;-79
2022/12/21 11:32:45;;;;;;;26.60;11.70;;;;;;;;;;106749;1302;22088;-79
2022/12/21 11:35:20;;;;;;;27.40;12.10;;;;;;;;;;106666;1310;22743;-78
2022/12/21 11:37:55;;;;;;;23.80;11.80;;;;;;;;;;106652;1309;22241;-79
2022/12/21 11:40:24;;;;;;;26.50;11.90;;;;;;;;;;106685;1307;22096;-79
2022/12/21 11:42:51;;;;;;;22.70;10.60;;;;;;;;;;106803;1305;21922;-79
2022/12/21 11:45:20;;;;;;;26.00;11.10;;;;;;;;;;106873;1309;22068;-79
2022/12/21 11:48:05;;;;;;;31.20;13.70;;;;;;;;;;106704;1310;21965;-79
2022/12/21 11:50:41;;;;;;;25.70;11.60;;;;;;;;;;106694;1310;22141;-78
2022/12/21 11:53:11;;;;;;;32.90;13.80;;;;;;;;;;106644;1312;22566;-79
2022/12/21 11:55:54;;;;;;;30.40;12.80;;;;;;;;;;106658;1308;22723;-79
2022/12/21 11:58:27;;;;;;;24.90;10.70;;;;;;;;;;106686;1310;22777;-77
2022/12/21 12:00:55;;;;;;;22.40;10.50;;;;;;;;;;106748;1309;22724;-78
2022/12/21 12:03:23;;;;;;;22.70;11.20;;;;;;;;;;106768;1306;22037;-79
2022/12/21 12:05:51;;;;;;;25.10;11.60;;;;;;;;;;106770;1309;22082;-79
2022/12/21 12:08:44;;;;;;;23.00;11.20;;;;;;;;;;106769;1310;22080;-79
2022/12/21 12:11:11;;;;;;;26.30;11.60;;;;;;;;;;106784;1302;22127;-78
2022/12/21 12:13:57;;;;;;;25.80;11.40;;;;;;;;;;106951;1297;22048;-77
2022/12/21 12:16:30;;;;;;;23.30;10.20;;;;;;;;;;106769;1308;21942;-78
2022/12/21 12:19:19;;;;;;;24.20;10.90;;;;;;;;;;106734;1308;22688;-77
2022/12/21 12:22:05;;;;;;;19.90;8.40;;;;;;;;;;106770;1308;22805;-78
2022/12/21 12:24:47;;;;;;;22.00;9.60;;;;;;;;;;106721;1309;22086;-77
2022/12/21 12:27:15;;;;;;;20.80;9.80;;;;;;;;;;106679;1309;22338;-78
2022/12/21 12:29:55;;;;;;;27.60;12.70;;;;;;;;;;106728;1310;22089;-79
2022/12/21 12:32:29;;;;;;;26.60;12.70;;;;;;;;;;106760;1307;22096;-79
2022/12/21 12:34:59;;;;;;;25.80;12.30;;;;;;;;;;106736;1301;22762;-78
2022/12/21 12:37:45;;;;;;;25.00;11.70;;;;;;;;;;106899;1303;22301;-79
2022/12/21 12:40:22;;;;;;;28.00;13.00;;;;;;;;;;106723;1310;22064;-78
2022/12/21 12:43:10;;;;;;;24.70;11.20;;;;;;;;;;106737;1315;22573;-78
2022/12/21 12:45:43;;;;;;;24.40;10.80;;;;;;;;;;106521;1313;22151;-78
2022/12/21 12:48:29;;;;;;;23.90;10.80;;;;;;;;;;106271;1313;22760;-78
2022/12/21 12:51:06;;;;;;;21.70;9.50;;;;;;;;;;106530;1313;22106;-78
2022/12/21 12:53:53;;;;;;;20.10;9.50;;;;;;;;;;106519;1305;22301;-79
2022/12/21 12:56:31;;;;;;;18.00;8.60;;;;;;;;;;106468;1306;22080;-78
2022/12/21 12:59:04;;;;;;;20.30;9.50;;;;;;;;;;106131;1314;22152;-78
2022/12/21 13:01:56;;;;;;;21.50;9.50;;;;;;;;;;106261;1314;22027;-78
2022/12/21 13:04:35;;;;;;;23.30;9.20;;;;;;;;;;106271;1313;22136;-79
2022/12/21 13:07:22;;;;;;;17.80;7.60;;;;;;;;;;106278;1307;22096;-78
2022/12/21 13:09:58;;;;;;;22.70;9.00;;;;;;;;;;106224;1314;22128;-77
2022/12/21 13:12:38;;;;;;;23.20;9.50;;;;;;;;;;106273;1315;21742;-77
2022/12/21 13:15:23;;;;;;;24.00;9.50;;;;;;;;;;106241;1308;22083;-79
2022/12/21 13:18:04;;;;;;;22.40;8.80;;;;;;;;;;104799;1316;1953713;-78
2022/12/21 13:20:35;;;;;;;23.80;10.20;;;;;;;;;;106198;1313;22107;-77
2022/12/21 13:23:24;;;;;;;20.10;8.50;;;;;;;;;;106470;1309;22693;-78
2022/12/21 13:25:56;;;;;;;22.10;8.60;;;;;;;;;;106973;1302;22044;-80
2022/12/21 13:28:31;;;;;;;21.60;9.30;;;;;;;;;;106630;1311;22250;-78
2022/12/21 13:31:03;;;;;;;21.60;8.90;;;;;;;;;;106602;1310;22798;-79
2022/12/21 13:33:35;;;;;;;21.70;9.20;;;;;;;;;;106648;1310;21949;-78
2022/12/21 13:36:06;;;;;;;20.70;8.80;;;;;;;;;;106638;1308;22033;-78
2022/12/21 13:38:40;;;;;;;19.70;9.20;;;;;;;;;;106708;1309;21894;-79
2022/12/21 13:41:15;;;;;;;18.90;8.50;;;;;;;;;;106560;1309;22146;-77
2022/12/21 13:43:52;;;;;;;21.30;8.80;;;;;;;;;;106681;1310;22061;-79
2022/12/21 13:46:21;;;;;;;26.00;10.00;;;;;;;;;;106788;1297;22117;-80
2022/12/21 13:48:55;;;;;;;28.60;11.10;;;;;;;;;;106650;1309;22082;-80
2022/12/21 13:51:28;;;;;;;34.20;13.00;;;;;;;;;;106718;1307;22789;-81
2022/12/21 13:54:26;;;;;;;27.80;11.40;;;;;;;;;;106730;1294;22053;-79
2022/12/21 14:04:33;;;;;;;26.80;11.10;;;;;;;;;;100255;1342;547995;-81
2022/12/21 14:07:18;;;;;;;21.90;9.60;;;;;;;;;;102421;1308;24345;-85
2022/12/21 14:10:02;;;;;;;23.60;10.80;;;;;;;;;;102478;1318;22505;-79
2022/12/21 14:12:52;;;;;;;22.70;10.40;;;;;;;;;;102536;1319;22478;-84
2022/12/21 14:15:33;;;;;;;26.70;11.00;;;;;;;;;;102331;1319;22659;-84
2022/12/21 14:17:59;;;;;;;23.40;10.50;;;;;;;;;;101665;1316;1482757;-82
2022/12/21 14:20:26;;;;;;;27.70;11.40;;;;;;;;;;102587;1316;25373;-80
2022/12/21 14:22:53;;;;;;;27.90;12.20;;;;;;;;;;102365;1316;25232;-80
2022/12/21 14:25:31;;;;;;;29.10;11.90;;;;;;;;;;102588;1315;22482;-84
2022/12/21 14:28:02;;;;;;;26.60;11.90;;;;;;;;;;102654;1319;24278;-80
2022/12/21 14:30:29;;;;;;;26.70;12.20;;;;;;;;;;102697;1316;22469;-83
2022/12/21 14:32:57;;;;;;;29.40;12.30;;;;;;;;;;102688;1317;22483;-82
2022/12/21 14:35:30;;;;;;;23.00;10.20;;;;;;;;;;102433;1316;24167;-79
2022/12/21 14:38:15;;;;;;;24.30;9.20;;;;;;;;;;102761;1316;24435;-83
2022/12/21 14:40:55;;;;;;;25.10;9.50;;;;;;;;;;103675;1306;22474;-86
2022/12/21 14:43:21;;;;;;;24.00;10.90;;;;;;;;;;103816;1306;22494;-85
2022/12/21 14:45:48;;;;;;;24.00;9.80;;;;;;;;;;103656;1306;22580;-83
2022/12/21 14:48:26;;;;;;;23.60;9.80;;;;;;;;;;103550;1306;24325;-80
2022/12/21 14:51:01;;;;;;;24.50;10.30;;;;;;;;;;103668;1305;22605;-85
2022/12/21 14:53:27;;;;;;;21.30;9.90;;;;;;;;;;103594;1302;22528;-80
2022/12/21 14:56:12;;;;;;;23.80;10.10;;;;;;;;;;104095;1305;22490;-82
2022/12/21 14:58:45;;;;;;;31.60;12.60;;;;;;;;;;103558;1306;22501;-83
2022/12/21 15:01:17;;;;;;;35.70;13.70;;;;;;;;;;103545;1307;23846;-84